Terminal Aerodrome Forecast
Issued by NWS

Home | Current Version | Previous Version | Text Only | Print | Product List | Glossary On
Versions: 1 2 3 4 5 6 7 8 9 10 11 12 13 14 15 16 17 18 19 20 21 22 23 24 25 26 27 28 29 30 31
000
FTUS44 KLIX 041743
TAFHUM
TAF
KHUM 041743Z 0418/0518 19017G21KT 3SM SHRA VCSH BKN011
      TEMPO 0418/0422 VRB15KT 1SM TSRA BKN020CB
     FM050100 VRB02KT P6SM SCT110 BKN250
     FM050600 23004KT 5SM BR SCT250
      TEMPO 0511/0513 1SM BR SCT008
     FM051400 32003KT P6SM SCT025=

USA.gov is the U.S. government's official web portal to all federal, state and local government web resources and services.